Time;durP1;ratioP1;P1;durP2;ratioP2;P2;SDS_P1;SDS_P2;PMS_P1;PMS_P2;Temp;Humidity;BMP_temperature;BMP_pressure;BME280_temperature;BME280_humidity;BME280_pressure;Samples;Min_cycle;Max_cycle;Signal;HPM_P1;HPM_P2
2022/09/02 00:01:31;;;;;;;3.40;0.50;;;16.30;66.60;;;;;;5025442;28;20543;-67
2022/09/02 00:04:05;;;;;;;3.42;0.82;;;16.10;67.30;;;;;;5025256;28;20041;-68
2022/09/02 00:06:32;;;;;;;4.00;0.85;;;16.20;66.90;;;;;;4994519;28;20149;-68
2022/09/02 00:09:03;;;;;;;4.28;1.17;;;16.20;66.50;;;;;;5010942;28;20054;-70
2022/09/02 00:11:30;;;;;;;3.03;0.60;;;16.20;66.80;;;;;;5006418;28;20144;-68
2022/09/02 00:13:59;;;;;;;7.05;0.80;;;16.10;67.20;;;;;;4995233;28;20432;-68
2022/09/02 00:16:26;;;;;;;1.60;0.65;;;16.00;67.20;;;;;;5017307;28;20144;-67
2022/09/02 00:18:53;;;;;;;5.03;0.65;;;15.80;68.50;;;;;;4999479;28;20476;-68
2022/09/02 00:21:20;;;;;;;3.33;0.80;;;15.80;68.70;;;;;;5046565;28;20049;-68
2022/09/02 00:23:48;;;;;;;3.97;0.88;;;15.70;68.70;;;;;;5010610;28;20048;-68
2022/09/02 00:26:15;;;;;;;5.43;0.80;;;15.70;68.60;;;;;;5040061;28;20041;-67
2022/09/02 00:28:42;;;;;;;0.88;0.70;;;15.70;68.60;;;;;;5010934;28;20053;-68
2022/09/02 00:31:08;;;;;;;2.88;0.80;;;15.60;69.00;;;;;;5030593;28;20045;-68
2022/09/02 00:33:37;;;;;;;4.45;0.80;;;15.50;69.90;;;;;;5008148;28;20115;-68
2022/09/02 00:36:06;;;;;;;3.28;0.80;;;15.50;69.80;;;;;;5012783;28;20073;-67
2022/09/02 00:38:34;;;;;;;2.33;0.60;;;15.60;70.00;;;;;;5026183;28;20046;-67
2022/09/02 00:41:02;;;;;;;2.30;0.77;;;15.60;69.60;;;;;;5018408;28;20464;-67
2022/09/02 00:43:48;;;;;;;2.67;0.57;;;15.60;69.60;;;;;;5009733;28;20137;-67
2022/09/02 00:46:16;;;;;;;3.38;0.90;;;15.60;69.80;;;;;;5016848;28;20073;-67
2022/09/02 00:48:59;;;;;;;5.75;0.70;;;15.60;69.70;;;;;;5008872;28;20045;-68
2022/09/02 00:51:26;;;;;;;3.45;0.50;;;15.60;70.10;;;;;;5021276;28;20375;-68
2022/09/02 00:53:54;;;;;;;1.60;0.70;;;15.50;70.00;;;;;;5012045;28;20442;-68
2022/09/02 00:56:24;;;;;;;3.38;0.98;;;15.50;70.40;;;;;;5010207;28;20191;-68
2022/09/02 00:58:51;;;;;;;2.97;1.27;;;15.50;69.90;;;;;;5010826;28;20054;-67
2022/09/02 01:01:18;;;;;;;6.43;0.90;;;15.50;70.20;;;;;;5016446;28;20070;-66
2022/09/02 01:03:45;;;;;;;2.78;0.68;;;15.40;70.50;;;;;;4993445;28;20072;-68
2022/09/02 01:06:14;;;;;;;4.50;0.85;;;15.30;70.40;;;;;;5020992;28;20442;-68
2022/09/02 01:08:43;;;;;;;3.88;0.90;;;15.30;70.50;;;;;;5000613;28;20433;-67
2022/09/02 01:11:11;;;;;;;2.10;0.90;;;15.30;70.90;;;;;;5012000;28;20053;-67
2022/09/02 01:13:40;;;;;;;2.63;0.90;;;15.20;71.40;;;;;;4993970;28;20527;-68
2022/09/02 01:16:22;;;;;;;3.85;0.90;;;15.20;71.30;;;;;;5012485;28;20054;-68
2022/09/02 01:18:51;;;;;;;2.33;0.90;;;15.20;71.20;;;;;;5016399;28;20137;-68
2022/09/02 01:21:18;;;;;;;3.03;1.00;;;15.20;71.20;;;;;;5016534;28;20131;-67
2022/09/02 01:23:46;;;;;;;3.70;0.80;;;15.20;71.30;;;;;;5028943;28;20057;-66
2022/09/02 01:26:12;;;;;;;2.40;0.70;;;15.20;70.80;;;;;;5009623;28;20061;-67
2022/09/02 01:28:39;;;;;;;3.55;0.80;;;15.20;71.40;;;;;;4992781;28;20770;-67
2022/09/02 01:31:07;;;;;;;2.08;0.80;;;15.20;71.10;;;;;;5038189;28;20049;-68
2022/09/02 01:33:33;;;;;;;3.00;0.88;;;15.20;71.40;;;;;;5015570;28;20554;-67
2022/09/02 01:36:03;;;;;;;4.68;0.90;;;15.20;71.50;;;;;;5020829;28;20120;-69
2022/09/02 01:38:29;;;;;;;2.03;0.80;;;15.20;71.50;;;;;;5016321;28;20785;-67
2022/09/02 01:40:57;;;;;;;2.35;0.77;;;15.30;71.90;;;;;;5009211;28;20041;-68
2022/09/02 01:43:25;;;;;;;1.60;0.70;;;15.30;71.40;;;;;;5016161;28;20049;-66
2022/09/02 01:45:53;;;;;;;1.45;0.70;;;15.30;71.40;;;;;;4992997;28;20610;-67
2022/09/02 01:48:21;;;;;;;3.35;0.80;;;15.30;71.80;;;;;;5009153;28;20046;-67
2022/09/02 01:51:00;;;;;;;4.15;0.85;;;15.30;71.50;;;;;;5021362;28;20393;-66
2022/09/02 01:53:28;;;;;;;2.03;0.95;;;15.30;72.30;;;;;;5019501;28;20073;-68
2022/09/02 01:55:55;;;;;;;1.77;0.85;;;15.20;72.20;;;;;;5038425;28;20056;-67
2022/09/02 01:58:22;;;;;;;5.13;0.80;;;15.10;72.80;;;;;;5013916;28;20053;-67
2022/09/02 02:00:49;;;;;;;2.97;0.93;;;15.10;72.80;;;;;;5022025;28;20037;-68
2022/09/02 02:03:15;;;;;;;3.25;0.90;;;15.10;72.80;;;;;;4997009;28;20133;-67
2022/09/02 02:05:42;;;;;;;1.95;0.95;;;15.10;72.70;;;;;;5009840;28;20129;-66
2022/09/02 02:08:09;;;;;;;5.55;0.85;;;15.10;73.10;;;;;;5010698;28;20476;-67
2022/09/02 02:10:38;;;;;;;1.35;0.52;;;15.20;72.60;;;;;;5032926;28;20058;-68
2022/09/02 02:13:06;;;;;;;5.10;0.90;;;15.20;72.40;;;;;;5007308;28;20056;-69
2022/09/02 02:15:35;;;;;;;1.52;0.70;;;15.20;72.80;;;;;;4992136;28;20050;-67
2022/09/02 02:18:02;;;;;;;2.45;0.80;;;15.20;72.60;;;;;;4996922;28;20045;-67
2022/09/02 02:20:29;;;;;;;1.92;0.77;;;15.10;72.50;;;;;;4997983;28;20467;-67
2022/09/02 02:22:56;;;;;;;3.58;0.88;;;15.10;72.60;;;;;;5015209;28;20088;-68
2022/09/02 02:25:24;;;;;;;4.60;0.85;;;15.10;72.50;;;;;;5014964;28;20212;-67
2022/09/02 02:27:51;;;;;;;;;;;15.10;72.80;;;;;;5011238;28;20045;-68
2022/09/02 02:30:19;;;;;;;3.65;0.77;;;15.10;72.90;;;;;;5015394;28;20331;-68
2022/09/02 02:32:46;;;;;;;2.72;0.70;;;15.10;73.00;;;;;;4992847;28;20100;-68
2022/09/02 02:35:14;;;;;;;3.10;0.90;;;15.00;72.70;;;;;;5015143;28;20104;-68
2022/09/02 02:37:40;;;;;;;1.13;0.70;;;15.10;73.10;;;;;;5015398;28;20080;-68
2022/09/02 02:40:09;;;;;;;1.38;0.70;;;15.00;72.80;;;;;;5007261;28;20375;-67
2022/09/02 02:42:36;;;;;;;;;;;15.00;72.60;;;;;;5018273;28;20050;-68
2022/09/02 02:45:07;;;;;;;3.70;0.88;;;14.90;73.30;;;;;;5055208;28;19909;-67
2022/09/02 02:47:40;;;;;;;4.40;0.88;;;14.90;73.70;;;;;;5040275;28;20367;-68
2022/09/02 02:50:09;;;;;;;3.53;1.00;;;14.90;73.30;;;;;;4996034;28;20081;-67
2022/09/02 02:52:35;;;;;;;2.63;0.73;;;15.00;73.00;;;;;;5015166;28;20057;-67
2022/09/02 02:55:03;;;;;;;3.72;0.80;;;14.90;73.10;;;;;;5014871;28;20049;-67
2022/09/02 02:57:31;;;;;;;3.05;0.73;;;14.90;73.10;;;;;;5009482;28;20060;-66
2022/09/02 03:00:03;;;;;;;3.47;1.00;;;14.90;73.70;;;;;;5027852;28;20136;-69
2022/09/02 03:02:33;;;;;;;1.50;0.85;;;14.80;74.10;;;;;;5010002;28;20042;-67
2022/09/02 03:05:01;;;;;;;3.20;1.10;;;14.70;74.20;;;;;;5029543;28;20131;-68
2022/09/02 03:07:29;;;;;;;3.50;0.70;;;14.80;74.40;;;;;;5006575;28;20057;-67
2022/09/02 03:09:56;;;;;;;2.33;0.80;;;14.70;74.30;;;;;;5012509;28;20053;-67
2022/09/02 03:12:24;;;;;;;5.75;0.80;;;14.70;74.10;;;;;;5012758;28;20061;-70
2022/09/02 03:14:51;;;;;;;3.30;1.50;;;14.80;74.10;;;;;;5017843;28;20487;-67
2022/09/02 03:17:18;;;;;;;2.83;1.10;;;14.70;74.00;;;;;;5046041;28;20114;-68
2022/09/02 03:19:45;;;;;;;4.38;0.95;;;14.70;74.10;;;;;;5010438;28;20038;-68
2022/09/02 03:22:13;;;;;;;2.88;0.90;;;14.60;74.50;;;;;;5011762;28;20053;-67
2022/09/02 03:24:40;;;;;;;7.10;0.95;;;14.50;74.50;;;;;;5047874;28;20069;-67
2022/09/02 03:27:05;;;;;;;2.83;0.88;;;14.60;74.80;;;;;;5001298;28;20053;-68
2022/09/02 03:29:32;;;;;;;2.80;1.45;;;14.50;74.90;;;;;;5011906;28;20468;-68
2022/09/02 03:31:59;;;;;;;3.35;0.80;;;14.40;75.30;;;;;;5043063;28;20132;-69
2022/09/02 03:34:26;;;;;;;10.25;1.02;;;14.30;75.30;;;;;;5017618;28;20054;-67
2022/09/02 03:36:54;;;;;;;4.85;1.13;;;14.30;75.70;;;;;;5018174;28;20495;-67
2022/09/02 03:39:21;;;;;;;6.18;1.10;;;14.30;76.40;;;;;;5012050;28;20114;-67
2022/09/02 03:41:49;;;;;;;2.17;0.90;;;14.20;76.30;;;;;;4994779;28;20045;-67
2022/09/02 03:44:16;;;;;;;2.30;1.33;;;14.10;76.40;;;;;;5011411;28;20046;-67
2022/09/02 03:46:43;;;;;;;3.42;0.90;;;14.10;76.70;;;;;;5041793;28;20468;-67
2022/09/02 03:49:10;;;;;;;1.95;1.02;;;14.10;76.60;;;;;;5020636;28;20081;-68
2022/09/02 03:51:39;;;;;;;3.15;1.10;;;14.00;76.70;;;;;;5018827;28;20467;-67
2022/09/02 03:54:06;;;;;;;2.78;1.10;;;14.00;77.00;;;;;;5011056;28;20064;-68
2022/09/02 03:56:33;;;;;;;2.55;1.42;;;14.00;77.20;;;;;;5040900;28;20050;-67
2022/09/02 03:59:01;;;;;;;2.85;1.20;;;14.00;77.40;;;;;;4983553;28;20037;-69
2022/09/02 04:01:28;;;;;;;3.25;0.93;;;13.90;76.60;;;;;;5014742;28;20079;-68
2022/09/02 04:03:55;;;;;;;7.38;1.13;;;14.00;76.50;;;;;;5020260;28;20638;-68
2022/09/02 04:06:23;;;;;;;1.42;1.05;;;14.00;76.80;;;;;;4979352;28;20091;-68
2022/09/02 04:08:51;;;;;;;2.10;1.00;;;14.00;76.20;;;;;;5001345;28;20067;-68
2022/09/02 04:11:19;;;;;;;4.75;1.13;;;14.00;76.60;;;;;;5017626;28;20055;-68
2022/09/02 04:13:45;;;;;;;;;;;14.00;76.50;;;;;;5011510;28;20057;-68
2022/09/02 04:16:18;;;;;;;4.95;1.13;;;14.10;76.30;;;;;;5057467;28;20323;-68
2022/09/02 04:18:45;;;;;;;4.03;1.52;;;14.10;76.20;;;;;;5018605;28;20276;-68
2022/09/02 04:21:15;;;;;;;3.85;1.33;;;14.00;76.40;;;;;;5010703;28;20072;-68
2022/09/02 04:23:42;;;;;;;4.00;1.10;;;14.00;76.50;;;;;;4995176;28;20049;-69
2022/09/02 04:26:12;;;;;;;3.90;1.17;;;14.00;76.30;;;;;;4994255;28;20082;-69
2022/09/02 04:28:39;;;;;;;2.10;1.02;;;14.00;76.70;;;;;;5017635;28;20124;-69
2022/09/02 04:31:07;;;;;;;5.25;1.33;;;14.00;77.00;;;;;;5018432;28;20074;-69
2022/09/02 04:33:34;;;;;;;4.30;1.30;;;14.00;76.80;;;;;;4978470;28;20053;-70
2022/09/02 04:36:05;;;;;;;2.78;1.33;;;14.10;77.00;;;;;;5005574;28;20304;-68
2022/09/02 04:38:32;;;;;;;3.42;1.50;;;14.10;77.20;;;;;;4994221;28;20117;-68
2022/09/02 04:40:59;;;;;;;3.97;1.20;;;14.10;76.50;;;;;;5010174;28;20059;-68
2022/09/02 04:43:26;;;;;;;4.10;1.40;;;14.00;76.30;;;;;;5044620;28;20614;-68
2022/09/02 04:45:56;;;;;;;5.95;1.30;;;14.00;76.50;;;;;;4995682;28;20129;-69
2022/09/02 04:48:23;;;;;;;5.20;1.30;;;14.00;77.00;;;;;;5010182;28;20084;-68
2022/09/02 04:50:50;;;;;;;5.35;1.30;;;13.90;77.10;;;;;;5018621;28;20061;-68
2022/09/02 04:53:17;;;;;;;6.47;1.45;;;13.90;77.00;;;;;;5043103;28;20474;-69
2022/09/02 04:55:44;;;;;;;4.45;1.50;;;13.90;76.80;;;;;;5023175;28;20060;-69
2022/09/02 04:58:11;;;;;;;3.85;1.35;;;13.90;77.00;;;;;;5010527;28;20384;-69
2022/09/02 05:00:39;;;;;;;3.20;1.10;;;13.80;76.90;;;;;;5015903;28;20526;-69
2022/09/02 05:03:06;;;;;;;6.35;1.30;;;13.80;77.00;;;;;;5014705;28;20368;-68
2022/09/02 05:05:34;;;;;;;2.67;1.40;;;13.70;77.60;;;;;;4994043;28;20049;-69
2022/09/02 05:08:03;;;;;;;2.42;1.20;;;13.60;77.70;;;;;;5015770;28;20056;-68
2022/09/02 05:10:31;;;;;;;3.78;1.58;;;13.60;78.40;;;;;;4978057;28;20056;-68
2022/09/02 05:12:59;;;;;;;4.72;1.40;;;13.60;78.70;;;;;;5013704;28;20368;-68
2022/09/02 05:15:26;;;;;;;5.45;1.33;;;13.60;78.20;;;;;;5014677;28;20054;-68
2022/09/02 05:17:53;;;;;;;4.90;1.30;;;13.60;78.00;;;;;;5017073;28;20049;-69
2022/09/02 05:20:21;;;;;;;5.57;1.63;;;13.60;77.70;;;;;;4993146;28;20057;-68
2022/09/02 05:22:49;;;;;;;3.67;1.33;;;13.50;78.40;;;;;;5014279;28;20052;-69
2022/09/02 05:25:16;;;;;;;3.00;1.43;;;13.50;78.60;;;;;;5011884;28;20083;-69
2022/09/02 05:27:43;;;;;;;5.70;1.30;;;13.60;79.20;;;;;;5010226;28;20063;-68
2022/09/02 05:30:12;;;;;;;7.28;1.50;;;13.60;78.90;;;;;;5013543;28;20061;-68
2022/09/02 05:32:40;;;;;;;4.72;1.58;;;13.60;78.90;;;;;;5014945;28;20054;-68
2022/09/02 05:35:08;;;;;;;3.58;1.40;;;13.80;78.70;;;;;;5038948;28;20041;-69
2022/09/02 05:37:35;;;;;;;7.70;1.50;;;13.70;78.40;;;;;;5015403;28;20483;-69
2022/09/02 05:40:02;;;;;;;2.95;1.35;;;13.70;78.70;;;;;;5002402;28;20509;-68
2022/09/02 05:42:30;;;;;;;3.13;1.60;;;13.70;78.70;;;;;;5016101;28;20099;-69
2022/09/02 05:44:57;;;;;;;3.13;1.30;;;13.80;78.50;;;;;;5027042;28;20124;-69
2022/09/02 05:47:24;;;;;;;2.28;1.30;;;13.80;77.80;;;;;;5012562;28;20288;-68
2022/09/02 05:49:52;;;;;;;8.63;2.15;;;13.90;77.90;;;;;;5036379;28;20053;-68
2022/09/02 05:52:17;;;;;;;4.55;1.80;;;13.90;77.80;;;;;;5012370;28;20143;-68
2022/09/02 05:54:44;;;;;;;3.10;1.58;;;13.90;77.70;;;;;;5027900;28;20111;-68
2022/09/02 05:57:13;;;;;;;4.25;1.85;;;14.00;77.50;;;;;;5056276;28;20483;-69
2022/09/02 05:59:41;;;;;;;6.68;1.95;;;13.90;78.10;;;;;;5046110;28;20170;-69
2022/09/02 06:02:11;;;;;;;7.00;1.57;;;14.00;78.00;;;;;;5020023;28;20041;-69
2022/09/02 06:04:39;;;;;;;5.13;1.42;;;14.00;78.10;;;;;;5024013;28;20057;-68
2022/09/02 06:07:07;;;;;;;4.03;1.60;;;14.10;78.30;;;;;;4999390;28;20136;-67
2022/09/02 06:09:34;;;;;;;3.20;1.60;;;14.20;77.70;;;;;;5024923;28;20068;-68
2022/09/02 06:12:03;;;;;;;3.78;1.50;;;14.10;78.20;;;;;;4990813;28;20132;-68
2022/09/02 06:14:31;;;;;;;5.72;1.83;;;14.20;78.00;;;;;;4995980;28;20053;-68
2022/09/02 06:17:01;;;;;;;5.65;1.50;;;14.30;78.30;;;;;;5014915;28;20049;-68
2022/09/02 06:19:29;;;;;;;3.80;1.52;;;14.30;78.20;;;;;;5002872;28;20111;-69
2022/09/02 06:21:55;;;;;;;3.78;1.35;;;14.40;77.80;;;;;;5040990;28;20144;-69
2022/09/02 06:24:21;;;;;;;4.32;1.52;;;14.50;78.20;;;;;;5014893;28;20053;-68
2022/09/02 06:26:48;;;;;;;5.07;1.30;;;14.50;77.80;;;;;;5021609;28;20106;-68
2022/09/02 06:29:15;;;;;;;6.82;1.33;;;14.60;78.40;;;;;;5004963;28;20145;-68
2022/09/02 06:31:44;;;;;;;3.50;1.30;;;14.70;77.80;;;;;;5023626;28;20051;-68
2022/09/02 06:34:12;;;;;;;;;;;14.70;78.00;;;;;;5015697;28;20473;-69
2022/09/02 06:36:39;;;;;;;4.82;1.70;;;14.80;78.10;;;;;;5018605;28;19918;-68
2022/09/02 06:39:06;;;;;;;3.67;1.63;;;14.80;77.40;;;;;;5012615;28;20789;-68
2022/09/02 06:41:32;;;;;;;3.08;1.40;;;14.90;77.50;;;;;;4991701;28;20049;-68
2022/09/02 06:44:02;;;;;;;5.15;1.33;;;14.90;77.10;;;;;;5024177;28;20080;-69
2022/09/02 06:46:34;;;;;;;4.70;1.27;;;15.00;77.30;;;;;;5014901;28;20135;-68
2022/09/02 06:49:02;;;;;;;6.13;1.50;;;15.10;77.30;;;;;;5033053;28;20057;-68
2022/09/02 06:51:31;;;;;;;5.00;1.27;;;15.10;77.50;;;;;;5019237;28;20057;-69
2022/09/02 06:53:59;;;;;;;6.88;1.58;;;15.20;76.70;;;;;;5026989;28;20045;-70
2022/09/02 06:56:26;;;;;;;3.97;1.47;;;15.30;76.50;;;;;;4993620;28;20427;-68
2022/09/02 06:58:53;;;;;;;4.50;1.27;;;15.30;76.60;;;;;;5023745;28;20052;-68
2022/09/02 07:01:25;;;;;;;3.15;1.20;;;15.30;76.70;;;;;;5010845;28;20091;-68
2022/09/02 07:06:43;;;;;;;3.08;1.10;;;15.50;76.50;;;;;;5044314;28;20048;-68
2022/09/02 07:09:12;;;;;;;4.22;1.45;;;15.60;76.40;;;;;;5026397;28;20046;-68
2022/09/02 07:11:40;;;;;;;2.28;1.30;;;15.60;75.80;;;;;;5007311;28;20152;-68
2022/09/02 07:14:08;;;;;;;5.37;1.40;;;15.70;75.50;;;;;;5010369;28;20049;-68
2022/09/02 07:16:37;;;;;;;4.50;1.30;;;15.80;75.30;;;;;;5025564;28;20471;-68
2022/09/02 07:19:04;;;;;;;2.67;1.48;;;15.80;75.20;;;;;;5024366;28;20464;-68
2022/09/02 07:21:31;;;;;;;5.28;1.67;;;15.90;75.10;;;;;;5003995;28;21033;-68
2022/09/02 07:24:01;;;;;;;2.92;1.40;;;15.90;74.70;;;;;;5017497;28;20053;-69
2022/09/02 07:26:28;;;;;;;3.45;1.33;;;16.00;74.80;;;;;;5014470;28;20112;-68
2022/09/02 07:28:55;;;;;;;4.28;1.50;;;16.10;75.00;;;;;;5021078;28;20368;-68
2022/09/02 07:31:22;;;;;;;1.83;1.23;;;16.20;74.60;;;;;;4995272;28;20060;-68
2022/09/02 07:33:49;;;;;;;3.30;1.20;;;16.20;74.30;;;;;;5018516;28;20053;-68
2022/09/02 07:36:20;;;;;;;4.57;1.60;;;16.30;74.00;;;;;;5006850;28;20057;-67
2022/09/02 07:38:47;;;;;;;3.28;1.30;;;16.30;73.60;;;;;;5021753;28;20108;-67
2022/09/02 07:41:14;;;;;;;5.05;1.30;;;16.40;73.70;;;;;;5000471;28;20056;-68
2022/09/02 07:43:41;;;;;;;4.68;1.10;;;16.50;73.70;;;;;;5037023;28;20045;-67
2022/09/02 07:46:08;;;;;;;4.10;1.48;;;16.60;73.50;;;;;;5006259;28;20049;-68
2022/09/02 07:48:35;;;;;;;9.07;1.88;;;16.60;73.40;;;;;;5023674;28;20053;-70
2022/09/02 07:51:01;;;;;;;4.22;1.63;;;16.70;73.10;;;;;;5019522;28;20049;-70
2022/09/02 07:53:28;;;;;;;5.93;1.58;;;16.80;73.10;;;;;;5022394;28;20045;-70
2022/09/02 07:55:55;;;;;;;4.68;1.40;;;16.90;73.00;;;;;;5004602;28;20471;-68
2022/09/02 07:58:22;;;;;;;6.55;1.35;;;17.00;72.30;;;;;;5017792;28;20055;-68
2022/09/02 08:00:49;;;;;;;4.43;1.58;;;17.00;71.70;;;;;;5010012;28;20045;-67
2022/09/02 08:03:15;;;;;;;4.20;1.25;;;17.10;71.10;;;;;;5010085;28;20061;-69
2022/09/02 08:05:43;;;;;;;2.88;1.40;;;17.20;71.10;;;;;;5015085;28;20041;-68
2022/09/02 08:08:10;;;;;;;2.33;1.50;;;17.20;70.80;;;;;;5017939;28;20042;-70
2022/09/02 08:10:37;;;;;;;4.63;1.40;;;17.30;71.00;;;;;;5002374;28;20065;-70
2022/09/02 08:13:05;;;;;;;2.88;1.25;;;17.40;70.40;;;;;;5019677;28;20145;-70
2022/09/02 08:15:34;;;;;;;4.25;1.30;;;17.40;70.40;;;;;;5027120;28;20037;-70
2022/09/02 08:18:01;;;;;;;3.97;1.30;;;17.50;70.60;;;;;;4998644;28;20046;-70
2022/09/02 08:20:31;;;;;;;3.45;1.17;;;17.60;69.90;;;;;;5012136;28;20057;-70
2022/09/02 08:22:58;;;;;;;4.55;1.10;;;17.70;70.10;;;;;;5008485;28;20052;-70
2022/09/02 08:25:25;;;;;;;3.20;1.10;;;17.80;70.00;;;;;;5017709;28;20045;-69
2022/09/02 08:27:55;;;;;;;8.05;1.50;;;17.90;69.70;;;;;;5018098;28;20060;-68
2022/09/02 08:30:22;;;;;;;6.45;1.48;;;17.90;69.30;;;;;;5019945;28;20049;-68
2022/09/02 08:32:49;;;;;;;4.05;1.40;;;18.00;69.00;;;;;;5045068;28;20781;-69
2022/09/02 08:35:16;;;;;;;4.00;1.40;;;18.10;68.70;;;;;;5023056;28;20572;-69
2022/09/02 08:37:43;;;;;;;5.35;1.30;;;18.20;68.50;;;;;;5002436;28;20080;-69
2022/09/02 08:40:18;;;;;;;2.22;1.00;;;18.30;68.80;;;;;;5021544;28;20125;-68
2022/09/02 08:42:55;;;;;;;2.85;0.98;;;18.50;68.20;;;;;;5013085;28;20451;-68
2022/09/02 08:45:47;;;;;;;3.50;1.52;;;18.60;67.00;;;;;;5017397;28;20038;-68
2022/09/02 08:48:31;;;;;;;3.47;1.27;;;18.80;65.40;;;;;;5018624;28;20046;-71
2022/09/02 08:50:59;;;;;;;5.03;1.13;;;18.90;64.60;;;;;;5012088;28;20041;-70
2022/09/02 08:53:58;;;;;;;4.50;1.10;;;19.00;63.50;;;;;;5019754;28;20056;-66
2022/09/02 08:56:27;;;;;;;3.67;1.00;;;19.10;62.90;;;;;;5025344;28;20057;-65
2022/09/02 08:59:02;;;;;;;10.00;1.58;;;19.20;62.90;;;;;;5012363;28;20543;-65
2022/09/02 09:01:48;;;;;;;5.05;1.00;;;19.30;63.10;;;;;;5025228;28;20053;-67
2022/09/02 09:04:38;;;;;;;2.15;1.00;;;19.40;61.80;;;;;;5025917;28;20046;-66
2022/09/02 09:07:53;;;;;;;5.43;1.08;;;19.60;62.30;;;;;;4998742;28;20085;-68
2022/09/02 09:10:42;;;;;;;3.58;1.02;;;19.70;61.60;;;;;;4908510;29;20056;-66
2022/09/02 09:13:23;;;;;;;4.47;1.30;;;19.90;59.50;;;;;;4946784;29;20120;-65
2022/09/02 09:15:58;;;;;;;2.90;0.80;;;20.00;58.90;;;;;;4932624;29;20102;-67
2022/09/02 09:18:36;;;;;;;7.18;0.93;;;20.00;58.60;;;;;;4932601;28;20053;-66
2022/09/02 09:21:03;;;;;;;3.65;0.95;;;20.00;58.40;;;;;;4912776;29;20067;-66
2022/09/02 09:23:35;;;;;;;2.75;0.85;;;20.10;58.40;;;;;;4932175;29;20459;-67
2022/09/02 09:26:11;;;;;;;5.00;1.08;;;20.20;58.40;;;;;;4930564;29;20043;-66
2022/09/02 09:28:42;;;;;;;5.00;0.80;;;20.20;58.10;;;;;;4910043;29;20144;-66
2022/09/02 09:31:23;;;;;;;5.20;0.80;;;20.40;57.50;;;;;;5086702;28;20910;-67
2022/09/02 09:34:07;;;;;;;1.45;0.80;;;20.40;56.50;;;;;;5063985;28;20137;-66
2022/09/02 09:36:43;;;;;;;2.00;0.80;;;20.50;55.70;;;;;;5075098;28;20070;-66
2022/09/02 09:39:30;;;;;;;2.85;1.17;;;20.50;55.40;;;;;;5069412;28;20105;-65
2022/09/02 09:42:03;;;;;;;2.78;0.80;;;20.60;56.10;;;;;;5052303;28;20465;-67
2022/09/02 09:44:48;;;;;;;2.17;0.80;;;20.80;53.40;;;;;;5075146;28;20044;-66
2022/09/02 09:47:21;;;;;;;3.78;1.00;;;20.80;53.80;;;;;;5070955;28;20045;-68
2022/09/02 09:49:50;;;;;;;4.57;1.00;;;20.90;53.00;;;;;;5069616;28;20472;-67
2022/09/02 09:52:26;;;;;;;2.70;1.02;;;21.00;52.90;;;;;;5059321;28;20053;-67
2022/09/02 09:55:16;;;;;;;1.80;0.90;;;21.10;52.60;;;;;;5063660;28;20420;-67
2022/09/02 09:57:44;;;;;;;2.65;0.90;;;21.10;51.70;;;;;;5048506;28;20038;-65
2022/09/02 10:00:31;;;;;;;5.57;1.00;;;21.20;51.50;;;;;;5052070;28;20056;-68
2022/09/02 10:03:04;;;;;;;3.38;0.98;;;21.40;52.20;;;;;;5047233;28;20083;-68
2022/09/02 10:05:38;;;;;;;4.40;1.08;;;21.50;52.20;;;;;;5045660;28;20049;-67
2022/09/02 10:08:16;;;;;;;2.15;0.85;;;21.60;51.50;;;;;;5069760;28;20107;-67
2022/09/02 10:11:05;;;;;;;2.38;1.15;;;21.80;52.20;;;;;;5067311;28;20052;-67
2022/09/02 10:13:34;;;;;;;2.78;1.00;;;21.80;50.10;;;;;;5065098;28;20040;-66
2022/09/02 10:16:31;;;;;;;4.55;1.10;;;21.70;51.00;;;;;;5065615;28;20076;-66
2022/09/02 10:19:29;;;;;;;6.75;0.93;;;21.90;49.70;;;;;;5073261;28;20579;-65
2022/09/02 10:22:16;;;;;;;4.00;0.98;;;21.90;49.00;;;;;;5032363;28;20043;-67
2022/09/02 10:25:08;;;;;;;2.65;0.80;;;22.00;48.90;;;;;;5075188;28;20186;-67
2022/09/02 10:27:52;;;;;;;3.95;1.08;;;21.90;47.20;;;;;;5069958;28;20098;-68
2022/09/02 10:30:24;;;;;;;3.25;1.00;;;22.00;48.50;;;;;;5067245;28;20163;-65
2022/09/02 10:33:00;;;;;;;3.47;0.90;;;22.10;48.90;;;;;;5031463;28;20809;-67
2022/09/02 10:35:45;;;;;;;8.23;1.00;;;22.20;47.90;;;;;;5049731;28;20063;-68
2022/09/02 10:38:19;;;;;;;2.50;1.08;;;22.20;47.30;;;;;;5051623;28;20041;-65
2022/09/02 10:40:51;;;;;;;4.32;0.70;;;22.30;47.50;;;;;;5064578;28;20606;-66
2022/09/02 10:43:47;;;;;;;3.97;1.10;;;22.40;46.70;;;;;;5055723;28;20608;-67
2022/09/02 10:46:16;;;;;;;2.13;0.90;;;22.40;47.70;;;;;;5053780;28;20051;-65
2022/09/02 10:49:00;;;;;;;1.52;0.73;;;22.60;48.40;;;;;;5054982;28;20746;-66
2022/09/02 10:51:53;;;;;;;3.90;1.05;;;22.70;47.90;;;;;;5056090;28;20052;-64
2022/09/02 10:54:55;;;;;;;6.90;0.85;;;22.80;46.30;;;;;;5056637;28;20056;-66
2022/09/02 10:57:55;;;;;;;52.97;2.80;;;22.90;45.50;;;;;;5018711;28;20105;-65
2022/09/02 11:00:22;;;;;;;15.23;1.30;;;22.70;45.90;;;;;;5039488;28;20087;-64
2022/09/02 11:03:14;;;;;;;17.77;1.48;;;22.70;46.50;;;;;;5049059;28;20087;-65
2022/09/02 11:06:06;;;;;;;5.03;1.10;;;22.80;46.30;;;;;;5037859;28;20454;-64
2022/09/02 11:08:44;;;;;;;4.03;0.80;;;23.10;46.50;;;;;;5060272;28;20052;-66
2022/09/02 11:11:20;;;;;;;5.35;0.93;;;23.30;45.10;;;;;;5047337;28;20187;-66
2022/09/02 11:13:52;;;;;;;2.08;0.80;;;23.30;47.00;;;;;;5038287;28;20052;-65
2022/09/02 11:16:20;;;;;;;3.50;0.80;;;23.40;45.40;;;;;;5054848;28;20055;-65
2022/09/02 11:19:17;;;;;;;5.22;1.00;;;23.50;44.30;;;;;;5054534;28;20044;-66
2022/09/02 11:21:51;;;;;;;3.40;0.95;;;23.70;46.10;;;;;;5051322;28;20149;-65
2022/09/02 11:24:43;;;;;;;5.32;0.82;;;23.80;44.80;;;;;;5055990;28;20102;-66
2022/09/02 11:27:17;;;;;;;4.90;0.93;;;24.00;43.40;;;;;;5052990;28;20049;-65
2022/09/02 11:29:45;;;;;;;3.10;0.90;;;24.20;44.10;;;;;;5032671;28;20050;-65
2022/09/02 11:32:35;;;;;;;5.85;1.20;;;24.20;43.40;;;;;;5049972;28;20120;-65
2022/09/02 11:35:05;;;;;;;2.17;0.93;;;24.20;43.70;;;;;;5053277;28;20044;-65
2022/09/02 11:37:43;;;;;;;4.88;0.80;;;24.30;43.80;;;;;;5040138;28;20040;-64
2022/09/02 11:40:13;;;;;;;5.00;1.00;;;24.50;44.70;;;;;;5057399;28;20056;-67
2022/09/02 11:42:55;;;;;;;3.40;0.93;;;24.40;42.60;;;;;;5052832;28;20467;-65
2022/09/02 11:45:59;;;;;;;3.40;0.65;;;24.30;42.10;;;;;;5057158;28;20048;-67
2022/09/02 11:48:44;;;;;;;1.75;0.82;;;24.20;42.80;;;;;;5054814;28;20132;-65
2022/09/02 11:51:43;;;;;;;3.42;0.88;;;24.50;44.00;;;;;;5049399;28;20390;-65
2022/09/02 11:54:12;;;;;;;6.13;0.98;;;24.70;42.30;;;;;;5049023;28;20057;-66
2022/09/02 11:56:41;;;;;;;3.20;0.88;;;24.70;41.40;;;;;;5038467;28;20055;-65
2022/09/02 11:59:18;;;;;;;5.53;0.80;;;24.60;41.40;;;;;;5014516;28;20045;-66
2022/09/02 12:01:52;;;;;;;3.55;0.80;;;24.70;40.50;;;;;;5020698;28;20045;-67
2022/09/02 12:04:25;;;;;;;5.97;1.00;;;24.70;43.00;;;;;;5032820;28;20102;-65
2022/09/02 12:07:07;;;;;;;3.00;0.80;;;24.70;40.20;;;;;;5055948;28;20052;-65
2022/09/02 12:09:46;;;;;;;6.03;0.82;;;24.90;43.10;;;;;;5064022;28;20363;-64
2022/09/02 12:12:41;;;;;;;4.03;0.85;;;25.10;41.70;;;;;;5043963;28;20037;-64
2022/09/02 12:15:17;;;;;;;2.85;0.80;;;25.10;41.40;;;;;;5057440;28;20532;-67
2022/09/02 12:17:49;;;;;;;7.20;0.80;;;25.10;42.00;;;;;;5041262;28;20052;-65
2022/09/02 12:20:43;;;;;;;6.20;0.93;;;25.20;41.90;;;;;;5045380;28;20464;-67
2022/09/02 12:23:43;;;;;;;6.35;1.08;;;25.30;41.40;;;;;;5035364;28;20055;-67
2022/09/02 12:26:10;;;;;;;2.42;0.88;;;25.40;39.60;;;;;;4992562;28;20050;-65
2022/09/02 12:28:38;;;;;;;5.95;1.00;;;25.60;39.80;;;;;;4972943;28;20232;-67
2022/09/02 12:31:07;;;;;;;4.53;0.77;;;25.70;40.90;;;;;;4978629;28;20506;-66
2022/09/02 12:33:35;;;;;;;3.30;0.80;;;25.60;41.20;;;;;;4994376;28;20048;-66
2022/09/02 12:36:03;;;;;;;2.22;0.80;;;25.40;39.80;;;;;;4967490;28;20045;-67
2022/09/02 12:38:39;;;;;;;2.03;0.82;;;25.30;40.40;;;;;;4979976;28;20057;-66
2022/09/02 12:41:26;;;;;;;2.53;0.80;;;25.00;40.10;;;;;;4961127;28;20046;-65
2022/09/02 12:44:27;;;;;;;2.25;0.95;;;24.80;41.40;;;;;;5032586;28;20086;-65
2022/09/02 12:47:34;;;;;;;6.88;0.93;;;24.60;40.60;;;;;;4962919;28;20058;-66
2022/09/02 12:50:28;;;;;;;2.88;0.90;;;24.60;40.40;;;;;;4959735;28;20089;-65
2022/09/02 12:53:30;;;;;;;4.45;0.95;;;24.40;41.00;;;;;;4969951;28;20125;-65
2022/09/02 12:56:14;;;;;;;2.40;0.70;;;24.30;40.40;;;;;;4969544;28;20504;-66
2022/09/02 12:58:51;;;;;;;4.97;1.17;;;24.50;40.10;;;;;;4981377;28;20116;-66
2022/09/02 13:01:38;;;;;;;3.40;0.80;;;24.90;40.20;;;;;;4946388;28;20221;-67
2022/09/02 13:04:16;;;;;;;1.27;0.60;;;25.30;40.30;;;;;;4951171;28;20165;-67
2022/09/02 13:07:20;;;;;;;4.20;0.90;;;25.60;39.40;;;;;;4943703;28;20462;-66
2022/09/02 13:10:17;;;;;;;1.98;0.68;;;26.50;37.50;;;;;;5023032;28;20053;-66
2022/09/02 13:13:13;;;;;;;2.55;0.80;;;26.10;37.80;;;;;;5051290;28;20073;-65
2022/09/02 13:16:10;;;;;;;4.00;1.00;;;25.40;38.00;;;;;;5046308;28;20222;-66
2022/09/02 13:19:15;;;;;;;3.20;0.73;;;25.70;38.00;;;;;;5053020;28;20067;-68